createdAt,value
2018-05-27T00:00:57.542Z,20.51
2018-05-27T00:01:57.550Z,20.49
2018-05-27T00:02:57.559Z,20.47
2018-05-27T00:03:57.607Z,20.46
2018-05-27T00:04:57.592Z,20.46
2018-05-27T00:05:57.603Z,20.39
2018-05-27T00:06:57.626Z,20.43
2018-05-27T00:07:57.652Z,20.41
2018-05-27T00:08:57.656Z,20.42
2018-05-27T00:09:57.664Z,20.39
2018-05-27T00:10:57.673Z,20.39
2018-05-27T00:11:57.705Z,20.33
2018-05-27T00:12:57.700Z,20.33
2018-05-27T00:13:57.725Z,20.34
2018-05-27T00:14:57.739Z,20.28
2018-05-27T00:15:57.758Z,20.23
2018-05-27T00:16:57.764Z,20.25
2018-05-27T00:17:57.787Z,20.25
2018-05-27T00:18:57.788Z,20.18
2018-05-27T00:19:57.822Z,20.30
2018-05-27T00:20:57.817Z,20.16
2018-05-27T00:21:57.843Z,20.28
2018-05-27T00:22:57.843Z,20.18
2018-05-27T00:23:57.858Z,20.27
2018-05-27T00:24:57.893Z,20.21
2018-05-27T00:25:57.906Z,20.20
2018-05-27T00:26:57.914Z,20.25
2018-05-27T00:27:57.922Z,20.24
2018-05-27T00:28:57.943Z,20.18
2018-05-27T00:29:57.958Z,20.20
2018-05-27T00:30:57.955Z,20.23
2018-05-27T00:31:57.993Z,20.20
2018-05-27T00:32:57.988Z,20.28
2018-05-27T00:34:44.661Z,20.25
2018-05-27T00:35:44.654Z,20.09
2018-05-27T00:36:44.661Z,20.18
2018-05-27T00:37:44.675Z,20.15
2018-05-27T00:38:44.680Z,20.16
2018-05-27T00:39:44.709Z,20.16
2018-05-27T00:40:44.718Z,20.12
2018-05-27T00:41:44.744Z,20.02
2018-05-27T00:42:44.745Z,20.00
2018-05-27T00:43:44.763Z,20.03
2018-05-27T00:44:44.789Z,20.00
2018-05-27T00:45:44.794Z,20.02
2018-05-27T00:46:44.799Z,20.06
2018-05-27T00:47:44.818Z,20.08
2018-05-27T00:48:44.830Z,20.02
2018-05-27T00:49:44.846Z,20.02
2018-05-27T00:50:44.868Z,20.02
2018-05-27T00:51:44.871Z,20.00
2018-05-27T00:52:44.889Z,19.97
2018-05-27T00:53:44.899Z,19.98
2018-05-27T00:54:44.917Z,20.02
2018-05-27T00:55:44.934Z,20.00
2018-05-27T00:56:44.941Z,20.03
2018-05-27T00:57:44.978Z,20.03
2018-05-27T00:58:44.971Z,19.88
2018-05-27T00:59:44.983Z,19.93
2018-05-27T01:00:44.999Z,19.91
2018-05-27T01:01:45.030Z,19.90
2018-05-27T01:02:45.024Z,19.84
2018-05-27T01:03:45.047Z,19.84
2018-05-27T01:04:45.053Z,19.80
2018-05-27T01:05:45.065Z,19.90
2018-05-27T01:06:45.090Z,19.84
2018-05-27T01:07:45.097Z,19.83
2018-05-27T01:08:45.110Z,19.80
2018-05-27T01:09:45.128Z,19.83
2018-05-27T01:10:45.145Z,19.73
2018-05-27T01:11:45.161Z,19.73
2018-05-27T01:12:45.171Z,19.76
2018-05-27T01:13:45.187Z,19.79
2018-05-27T01:14:45.285Z,19.79
2018-05-27T01:15:45.224Z,19.84
2018-05-27T01:16:45.234Z,19.83
2018-05-27T01:17:45.239Z,19.65
2018-05-27T01:18:45.264Z,19.63
2018-05-27T01:19:45.267Z,19.70
2018-05-27T01:20:45.290Z,19.69
2018-05-27T01:21:45.381Z,19.69
2018-05-27T01:22:45.303Z,19.65
2018-05-27T01:23:45.319Z,19.73
2018-05-27T01:24:45.337Z,19.66
2018-05-27T01:25:45.358Z,19.54
2018-05-27T01:26:45.365Z,19.72
2018-05-27T01:27:45.420Z,19.68
2018-05-27T01:28:45.461Z,19.57
2018-05-27T01:29:45.407Z,19.61
2018-05-27T01:30:45.430Z,19.60
2018-05-27T01:31:45.437Z,19.58
2018-05-27T01:32:45.465Z,19.54
2018-05-27T01:33:45.470Z,19.47
2018-05-27T01:34:45.489Z,19.54
2018-05-27T01:35:45.495Z,19.50
2018-05-27T01:36:45.527Z,19.47
2018-05-27T01:37:46.536Z,19.53
2018-05-27T01:38:45.539Z,19.42
2018-05-27T01:39:45.549Z,19.46
2018-05-27T01:40:45.595Z,19.39
2018-05-27T01:41:45.602Z,19.38
2018-05-27T01:42:32.708Z,19.31
2018-05-27T01:43:32.699Z,19.29
2018-05-27T01:44:32.711Z,19.33
2018-05-27T01:45:32.726Z,19.29
2018-05-27T01:46:32.746Z,19.24
2018-05-27T01:47:32.753Z,19.18
2018-05-27T01:48:32.763Z,19.11
2018-05-27T01:49:32.773Z,19.01
2018-05-27T01:50:32.799Z,19.06
2018-05-27T01:51:32.835Z,19.06
2018-05-27T01:52:32.831Z,18.97
2018-05-27T01:53:32.834Z,19.11
2018-05-27T01:54:32.842Z,19.08
2018-05-27T01:55:32.869Z,19.05
2018-05-27T01:56:32.878Z,18.94
2018-05-27T01:57:32.901Z,19.06
2018-05-27T01:58:32.894Z,18.94
2018-05-27T01:59:32.926Z,19.06
2018-05-27T02:00:32.933Z,18.98
2018-05-27T02:01:32.961Z,18.97
2018-05-27T02:02:32.953Z,19.06
2018-05-27T02:03:32.973Z,18.92
2018-05-27T02:04:33.012Z,19.01
2018-05-27T02:05:33.011Z,18.97
2018-05-27T02:06:33.111Z,18.97
2018-05-27T02:07:33.039Z,18.98
2018-05-27T02:08:33.037Z,18.91
2018-05-27T02:09:33.086Z,18.91
2018-05-27T02:10:33.074Z,18.91
2018-05-27T02:11:33.079Z,18.82
2018-05-27T02:12:33.133Z,18.90
2018-05-27T02:13:33.136Z,18.83
2018-05-27T02:14:33.124Z,18.87
2018-05-27T02:15:33.145Z,18.79
2018-05-27T02:17:20.151Z,18.82
2018-05-27T02:18:20.117Z,18.82
2018-05-27T02:19:20.141Z,18.84
2018-05-27T02:20:20.150Z,18.83
2018-05-27T02:21:20.161Z,18.76
2018-05-27T02:22:20.181Z,18.79
2018-05-27T02:23:20.189Z,18.67
2018-05-27T02:24:20.204Z,18.68
2018-05-27T02:25:20.211Z,18.67
2018-05-27T02:26:20.235Z,18.72
2018-05-27T02:27:20.243Z,18.64
2018-05-27T02:28:20.258Z,18.72
2018-05-27T02:29:20.282Z,18.65
2018-05-27T02:30:20.293Z,18.77
2018-05-27T02:31:20.294Z,18.72
2018-05-27T02:32:20.345Z,18.68
2018-05-27T02:33:20.328Z,18.76
2018-05-27T02:34:20.342Z,18.64
2018-05-27T02:35:20.346Z,18.73
2018-05-27T02:36:20.374Z,18.67
2018-05-27T02:37:20.378Z,18.73
2018-05-27T02:38:20.395Z,18.74
2018-05-27T02:39:20.405Z,18.76
2018-05-27T02:40:20.416Z,18.73
2018-05-27T02:41:20.439Z,18.62
2018-05-27T02:42:20.451Z,18.64
2018-05-27T02:43:20.478Z,18.59
2018-05-27T02:44:20.475Z,18.59
2018-05-27T02:45:20.505Z,18.59
2018-05-27T02:46:20.547Z,18.57
2018-05-27T02:47:20.533Z,18.50
2018-05-27T02:48:20.552Z,18.57
2018-05-27T02:49:20.548Z,18.59
2018-05-27T02:50:20.565Z,18.47
2018-05-27T02:51:20.566Z,18.50
2018-05-27T02:52:20.621Z,18.50
2018-05-27T02:53:20.625Z,18.50
2018-05-27T02:54:20.606Z,18.42
2018-05-27T02:55:20.618Z,18.47
2018-05-27T02:56:20.645Z,18.44
2018-05-27T02:57:20.648Z,18.44
2018-05-27T02:58:20.675Z,18.42
2018-05-27T02:59:20.673Z,18.39
2018-05-27T03:00:20.695Z,18.36
2018-05-27T03:01:20.698Z,18.40
2018-05-27T03:02:20.718Z,18.34
2018-05-27T03:03:20.751Z,18.33
2018-05-27T03:04:20.744Z,18.36
2018-05-27T03:05:20.759Z,18.34
2018-05-27T03:06:20.773Z,18.34
2018-05-27T03:07:20.783Z,18.33
2018-05-27T03:08:20.806Z,18.36
2018-05-27T03:09:20.800Z,18.24
2018-05-27T03:10:20.820Z,18.18
2018-05-27T03:11:20.830Z,18.21
2018-05-27T03:12:20.855Z,18.28
2018-05-27T03:13:20.858Z,18.17
2018-05-27T03:14:20.881Z,18.18
2018-05-27T03:15:20.890Z,18.27
2018-05-27T03:16:20.921Z,18.13
2018-05-27T03:17:20.913Z,18.15
2018-05-27T03:18:20.936Z,18.17
2018-05-27T03:19:20.942Z,18.17
2018-05-27T03:20:20.972Z,18.15
2018-05-27T03:21:20.973Z,18.12
2018-05-27T03:22:20.983Z,18.02
2018-05-27T03:23:20.992Z,18.02
2018-05-27T03:24:21.086Z,18.00
2018-05-27T03:25:21.025Z,17.95
2018-05-27T03:26:21.031Z,18.02
2018-05-27T03:27:21.044Z,17.97
2018-05-27T03:28:21.070Z,18.07
2018-05-27T03:29:21.071Z,18.02
2018-05-27T03:30:21.096Z,18.00
2018-05-27T03:31:21.098Z,18.04
2018-05-27T03:32:21.123Z,18.07
2018-05-27T03:33:21.130Z,18.00
2018-05-27T03:34:21.153Z,17.92
2018-05-27T03:35:21.169Z,17.99
2018-05-27T03:36:21.172Z,18.02
2018-05-27T03:37:08.243Z,18.03
2018-05-27T03:38:08.323Z,18.02
2018-05-27T03:39:08.232Z,18.00
2018-05-27T03:40:08.338Z,18.02
2018-05-27T03:41:08.278Z,17.94
2018-05-27T03:42:08.363Z,17.99
2018-05-27T03:43:08.291Z,18.03
2018-05-27T03:44:08.360Z,18.03
2018-05-27T03:45:08.340Z,18.04
2018-05-27T03:46:08.373Z,17.99
2018-05-27T03:47:08.341Z,17.95
2018-05-27T03:48:08.390Z,17.91
2018-05-27T03:49:08.365Z,18.00
2018-05-27T03:50:08.410Z,17.95
2018-05-27T03:51:08.391Z,18.02
2018-05-27T03:52:08.517Z,17.91
2018-05-27T03:53:08.426Z,18.04
2018-05-27T03:54:08.552Z,17.97
2018-05-27T03:55:08.461Z,17.92
2018-05-27T03:56:08.542Z,18.04
2018-05-27T03:57:08.514Z,18.09
2018-05-27T03:58:08.564Z,18.13
2018-05-27T03:59:08.497Z,18.09
2018-05-27T04:00:08.571Z,18.09
2018-05-27T04:01:08.536Z,18.07
2018-05-27T04:02:08.581Z,18.03
2018-05-27T04:03:08.562Z,18.09
2018-05-27T04:04:08.599Z,18.04
2018-05-27T04:05:08.567Z,18.07
2018-05-27T04:06:08.612Z,18.02
2018-05-27T04:07:08.599Z,18.15
2018-05-27T04:08:08.745Z,18.07
2018-05-27T04:09:08.632Z,18.09
2018-05-27T04:10:08.740Z,18.13
2018-05-27T04:11:08.656Z,18.07
2018-05-27T04:12:08.750Z,18.18
2018-05-27T04:13:08.687Z,18.18
2018-05-27T04:14:08.757Z,18.15
2018-05-27T04:15:08.721Z,18.22
2018-05-27T04:16:08.780Z,18.21
2018-05-27T04:17:08.738Z,18.25
2018-05-27T04:18:08.784Z,18.24
2018-05-27T04:19:08.764Z,18.13
2018-05-27T04:20:08.803Z,18.15
2018-05-27T04:21:08.789Z,18.21
2018-05-27T04:22:08.810Z,18.31
2018-05-27T04:23:08.826Z,18.25
2018-05-27T04:24:09.849Z,18.28
2018-05-27T04:25:08.845Z,18.28
2018-05-27T04:26:08.945Z,18.27
2018-05-27T04:27:08.870Z,18.34
2018-05-27T04:28:08.958Z,18.31
2018-05-27T04:29:08.897Z,18.37
2018-05-27T04:30:08.966Z,18.34
2018-05-27T04:31:08.928Z,18.36
2018-05-27T04:32:08.979Z,18.39
2018-05-27T04:33:08.940Z,18.44
2018-05-27T04:34:08.993Z,18.44
2018-05-27T04:35:08.970Z,18.47
2018-05-27T04:36:56.374Z,18.58
2018-05-27T04:37:56.464Z,18.52
2018-05-27T04:38:56.375Z,18.55
2018-05-27T04:39:56.438Z,18.57
2018-05-27T04:40:56.404Z,18.58
2018-05-27T04:41:56.453Z,18.55
2018-05-27T04:42:56.437Z,18.57
2018-05-27T04:43:56.458Z,18.58
2018-05-27T04:44:56.451Z,18.65
2018-05-27T04:45:56.479Z,18.65
2018-05-27T04:46:56.500Z,18.70
2018-05-27T04:47:56.592Z,18.77
2018-05-27T04:48:56.499Z,18.79
2018-05-27T04:49:56.605Z,18.84
2018-05-27T04:50:56.535Z,18.95
2018-05-27T04:51:56.619Z,18.95
2018-05-27T04:52:56.585Z,18.94
2018-05-27T04:53:56.630Z,18.95
2018-05-27T04:54:56.581Z,18.97
2018-05-27T04:55:56.643Z,18.92
2018-05-27T04:56:56.613Z,18.98
2018-05-27T04:57:56.660Z,19.01
2018-05-27T04:59:43.508Z,19.18
2018-05-27T05:00:43.412Z,19.17
2018-05-27T05:01:43.419Z,19.15
2018-05-27T05:02:43.474Z,19.28
2018-05-27T05:03:43.441Z,19.31
2018-05-27T05:04:43.490Z,19.29
2018-05-27T05:05:43.486Z,19.42
2018-05-27T05:06:43.502Z,19.42
2018-05-27T05:07:43.497Z,19.36
2018-05-27T05:08:43.616Z,19.46
2018-05-27T05:09:43.521Z,19.47
2018-05-27T05:10:43.639Z,19.48
2018-05-27T05:11:43.548Z,19.48
2018-05-27T05:12:43.644Z,19.48
2018-05-27T05:13:43.568Z,19.54
2018-05-27T05:14:43.668Z,19.57
2018-05-27T05:15:43.602Z,19.53
2018-05-27T05:16:43.667Z,19.65
2018-05-27T05:17:43.627Z,19.68
2018-05-27T05:18:43.681Z,19.68
2018-05-27T05:19:43.653Z,19.80
2018-05-27T05:20:43.709Z,19.88
2018-05-27T05:21:43.673Z,19.86
2018-05-27T05:22:43.764Z,19.88
2018-05-27T05:23:43.696Z,19.90
2018-05-27T05:24:43.825Z,20.02
2018-05-27T05:25:43.728Z,19.97
2018-05-27T05:26:43.847Z,20.02
2018-05-27T05:27:43.764Z,20.03
2018-05-27T05:28:43.853Z,20.09
2018-05-27T05:29:43.780Z,20.18
2018-05-27T05:30:43.868Z,20.13
2018-05-27T05:31:43.817Z,20.12
2018-05-27T05:32:43.881Z,19.97
2018-05-27T05:33:43.841Z,20.00
2018-05-27T05:34:43.891Z,20.06
2018-05-27T05:35:43.851Z,20.03
2018-05-27T05:36:43.904Z,20.09
2018-05-27T05:37:43.884Z,20.09
2018-05-27T05:38:43.915Z,20.09
2018-05-27T05:39:43.905Z,20.18
2018-05-27T05:40:44.035Z,20.15
2018-05-27T05:41:43.932Z,20.10
2018-05-27T05:42:44.047Z,20.16
2018-05-27T05:43:44.017Z,20.12
2018-05-27T05:44:44.109Z,20.25
2018-05-27T05:45:43.986Z,20.23
2018-05-27T05:46:44.071Z,20.30
2018-05-27T05:47:44.010Z,20.28
2018-05-27T05:48:44.090Z,20.35
2018-05-27T05:49:44.032Z,20.39
2018-05-27T05:50:44.097Z,20.43
2018-05-27T05:51:44.064Z,20.53
2018-05-27T05:52:44.129Z,20.53
2018-05-27T05:54:45.232Z,20.41
2018-05-27T05:55:45.229Z,20.42
2018-05-27T05:56:45.264Z,20.43
2018-05-27T05:57:45.229Z,20.43
2018-05-27T05:58:45.277Z,20.43
2018-05-27T05:59:45.242Z,20.56
2018-05-27T06:00:46.316Z,20.62
2018-05-27T06:01:45.283Z,20.62
2018-05-27T06:02:55.955Z,20.74
2018-05-27T06:03:45.347Z,20.66
2018-05-27T06:04:46.346Z,20.83
2018-05-27T06:05:45.333Z,20.77
2018-05-27T06:06:45.429Z,20.68
2018-05-27T06:07:45.349Z,20.68
2018-05-27T06:08:46.478Z,20.76
2018-05-27T06:09:45.399Z,20.86
2018-05-27T06:10:45.458Z,20.80
2018-05-27T06:11:45.426Z,20.80
2018-05-27T06:12:47.545Z,20.93
2018-05-27T06:13:45.424Z,20.98
2018-05-27T06:14:45.490Z,21.02
2018-05-27T06:15:45.450Z,21.06
2018-05-27T06:16:45.502Z,21.16
2018-05-27T06:17:45.472Z,21.21
2018-05-27T06:18:45.504Z,21.09
2018-05-27T06:19:45.512Z,21.19
2018-05-27T06:20:45.630Z,21.20
2018-05-27T06:21:45.539Z,21.20
2018-05-27T06:22:45.628Z,21.14
2018-05-27T06:23:45.552Z,21.23
2018-05-27T06:24:45.675Z,21.27
2018-05-27T06:25:45.609Z,21.32
2018-05-27T06:27:38.316Z,21.30
2018-05-27T06:28:39.321Z,21.46
2018-05-27T06:29:38.346Z,21.54
2018-05-27T06:30:39.420Z,21.61
2018-05-27T06:31:38.334Z,21.67
2018-05-27T06:32:38.457Z,21.91
2018-05-27T06:33:38.368Z,22.02
2018-05-27T06:34:38.437Z,22.09
2018-05-27T06:35:38.424Z,22.14
2018-05-27T06:36:39.488Z,22.16
2018-05-27T06:37:38.431Z,22.19
2018-05-27T06:38:38.446Z,22.20
2018-05-27T06:39:38.513Z,22.04
2018-05-27T06:41:25.775Z,22.01
2018-05-27T06:42:26.861Z,21.88
2018-05-27T06:43:25.794Z,21.97
2018-05-27T06:44:25.885Z,21.92
2018-05-27T06:45:25.783Z,21.83
2018-05-27T06:46:25.827Z,21.92
2018-05-27T06:47:25.810Z,21.85
2018-05-27T06:49:12.620Z,21.92
2018-05-27T06:50:12.675Z,21.83
2018-05-27T06:51:12.623Z,21.97
2018-05-27T06:52:12.693Z,21.92
2018-05-27T06:53:12.681Z,21.83
2018-05-27T06:54:12.724Z,21.85
2018-05-27T06:55:12.646Z,21.91
2018-05-27T06:56:12.673Z,21.97
2018-05-27T06:57:12.718Z,21.97
2018-05-27T06:58:12.719Z,22.10
2018-05-27T06:59:12.715Z,22.13
2018-05-27T07:00:12.805Z,22.10
2018-05-27T07:01:12.753Z,22.10
2018-05-27T07:02:12.817Z,22.17
2018-05-27T07:03:12.760Z,22.23
2018-05-27T07:04:13.869Z,22.20
2018-05-27T07:05:12.813Z,22.25
2018-05-27T07:06:12.841Z,22.31
2018-05-27T07:07:12.875Z,22.34
2018-05-27T07:08:12.855Z,22.29
2018-05-27T07:09:12.866Z,22.31
2018-05-27T07:10:12.908Z,22.38
2018-05-27T07:11:12.842Z,22.32
2018-05-27T07:12:12.882Z,22.43
2018-05-27T07:13:12.872Z,22.44
2018-05-27T07:14:13.001Z,22.49
2018-05-27T07:15:12.899Z,22.49
2018-05-27T07:16:13.010Z,22.38
2018-05-27T07:17:12.934Z,22.54
2018-05-27T07:18:13.043Z,22.49
2018-05-27T07:19:13.059Z,22.54
2018-05-27T07:20:13.057Z,22.59
2018-05-27T07:21:12.998Z,22.65
2018-05-27T07:22:13.048Z,22.67
2018-05-27T07:23:13.025Z,22.71
2018-05-27T07:24:13.062Z,22.69
2018-05-27T07:25:13.030Z,22.75
2018-05-27T07:26:13.077Z,22.77
2018-05-27T07:27:13.057Z,22.71
2018-05-27T07:28:13.127Z,22.75
2018-05-27T07:29:13.090Z,22.71
2018-05-27T07:30:13.228Z,22.80
2018-05-27T07:31:13.114Z,22.77
2018-05-27T07:32:13.235Z,22.74
2018-05-27T07:33:13.161Z,22.67
2018-05-27T07:34:13.267Z,22.69
2018-05-27T07:35:13.165Z,22.71
2018-05-27T07:36:13.247Z,22.69
2018-05-27T07:37:13.194Z,22.80
2018-05-27T07:38:13.261Z,22.72
2018-05-27T07:39:13.218Z,22.69
2018-05-27T07:40:13.274Z,22.74
2018-05-27T07:41:13.235Z,22.68
2018-05-27T07:42:13.278Z,22.71
2018-05-27T07:43:13.266Z,22.80
2018-05-27T07:44:14.330Z,22.94
2018-05-27T07:45:13.280Z,22.99
2018-05-27T07:46:13.458Z,22.97
2018-05-27T07:47:13.317Z,22.94
2018-05-27T07:48:13.491Z,23.11
2018-05-27T07:49:13.362Z,23.11
2018-05-27T07:50:13.443Z,23.20
2018-05-27T07:51:13.359Z,23.24
2018-05-27T07:52:13.471Z,23.20
2018-05-27T07:53:13.391Z,23.43
2018-05-27T07:55:01.811Z,23.32
2018-05-27T07:56:01.822Z,23.39
2018-05-27T07:57:01.788Z,23.32
2018-05-27T07:58:01.824Z,23.34
2018-05-27T07:59:01.801Z,23.31
2018-05-27T08:00:01.839Z,23.42
2018-05-27T08:01:01.825Z,23.45
2018-05-27T08:02:01.853Z,23.50
2018-05-27T08:03:01.830Z,23.47
2018-05-27T08:04:01.984Z,23.50
2018-05-27T08:05:01.874Z,23.55
2018-05-27T08:06:01.913Z,23.53
2018-05-27T08:07:01.909Z,23.60
2018-05-27T08:08:01.988Z,23.65
2018-05-27T08:09:01.922Z,23.64
2018-05-27T08:10:01.995Z,23.64
2018-05-27T08:11:01.939Z,23.68
2018-05-27T08:12:02.068Z,23.77
2018-05-27T08:13:01.992Z,23.68
2018-05-27T08:14:49.297Z,23.62
2018-05-27T08:15:49.357Z,23.64
2018-05-27T08:16:49.314Z,23.76
2018-05-27T08:17:49.392Z,23.77
2018-05-27T08:18:49.350Z,23.83
2018-05-27T08:19:49.403Z,23.80
2018-05-27T08:20:49.338Z,23.83
2018-05-27T08:21:49.369Z,23.98
2018-05-27T08:22:49.368Z,23.95
2018-05-27T08:23:49.498Z,23.95
2018-05-27T08:24:49.398Z,23.92
2018-05-27T08:25:49.496Z,24.10
2018-05-27T08:26:49.419Z,24.12
2018-05-27T08:27:49.518Z,24.16
2018-05-27T08:28:49.439Z,24.19
2018-05-27T08:30:36.555Z,24.14
2018-05-27T08:31:36.543Z,24.23
2018-05-27T08:32:36.521Z,24.23
2018-05-27T08:33:36.561Z,24.29
2018-05-27T08:34:36.534Z,24.39
2018-05-27T08:35:36.681Z,24.49
2018-05-27T08:36:36.627Z,24.49
2018-05-27T08:37:36.593Z,24.63
2018-05-27T08:38:36.606Z,24.57
2018-05-27T08:39:36.705Z,24.63
2018-05-27T08:40:36.612Z,24.68
2018-05-27T08:42:23.596Z,24.69
2018-05-27T08:43:23.636Z,24.83
2018-05-27T08:44:23.572Z,24.76
2018-05-27T08:45:23.626Z,24.90
2018-05-27T08:46:23.605Z,24.97
2018-05-27T08:47:23.626Z,25.00
2018-05-27T08:48:23.621Z,25.01
2018-05-27T08:49:23.649Z,25.01
2018-05-27T08:50:23.643Z,25.05
2018-05-27T08:51:23.763Z,25.01
2018-05-27T08:52:23.674Z,25.01
2018-05-27T08:53:23.785Z,25.00
2018-05-27T08:54:23.708Z,25.05
2018-05-27T08:55:23.793Z,25.10
2018-05-27T08:56:23.740Z,25.07
2018-05-27T08:57:23.831Z,25.19
2018-05-27T08:58:23.800Z,25.20
2018-05-27T08:59:23.817Z,25.25
2018-05-27T09:00:23.785Z,25.30
2018-05-27T09:01:23.859Z,25.27
2018-05-27T09:02:23.812Z,25.28
2018-05-27T09:03:23.878Z,25.32
2018-05-27T09:04:23.944Z,25.30
2018-05-27T09:05:23.963Z,25.34
2018-05-27T09:06:23.869Z,25.32
2018-05-27T09:07:23.975Z,25.44
2018-05-27T09:08:23.962Z,25.47
2018-05-27T09:09:23.981Z,25.46
2018-05-27T09:10:23.922Z,25.43
2018-05-27T09:11:24.015Z,25.54
2018-05-27T09:12:23.948Z,25.46
2018-05-27T09:13:24.014Z,25.44
2018-05-27T09:14:24.002Z,25.46
2018-05-27T09:15:24.078Z,25.44
2018-05-27T09:16:24.009Z,25.53
2018-05-27T09:17:24.136Z,25.46
2018-05-27T09:19:10.795Z,25.44
2018-05-27T09:20:10.731Z,25.46
2018-05-27T09:21:10.725Z,25.61
2018-05-27T09:22:10.777Z,25.65
2018-05-27T09:23:10.728Z,25.72
2018-05-27T09:24:10.794Z,25.75
2018-05-27T09:25:10.772Z,25.89
2018-05-27T09:26:10.895Z,25.89
2018-05-27T09:27:10.782Z,25.91
2018-05-27T09:28:10.806Z,25.80
2018-05-27T09:29:10.822Z,25.72
2018-05-27T09:30:10.922Z,25.71
2018-05-27T09:31:10.845Z,25.83
2018-05-27T09:32:10.951Z,25.75
2018-05-27T09:33:10.876Z,25.93
2018-05-27T09:34:10.933Z,25.98
2018-05-27T09:35:57.785Z,26.12
2018-05-27T09:36:57.690Z,26.11
2018-05-27T09:37:57.699Z,26.17
2018-05-27T09:38:57.763Z,26.17
2018-05-27T09:39:57.742Z,26.17
2018-05-27T09:40:57.795Z,26.20
2018-05-27T09:41:57.756Z,26.29
2018-05-27T09:42:57.898Z,26.18
2018-05-27T09:43:57.790Z,26.15
2018-05-27T09:44:57.914Z,26.18
2018-05-27T09:45:57.828Z,26.32
2018-05-27T09:46:57.926Z,26.36
2018-05-27T09:47:57.850Z,26.49
2018-05-27T09:48:57.925Z,26.67
2018-05-27T09:49:57.902Z,26.74
2018-05-27T09:50:57.943Z,26.76
2018-05-27T09:51:57.925Z,26.87
2018-05-27T09:52:58.006Z,26.96
2018-05-27T09:53:57.942Z,26.96
2018-05-27T09:54:57.955Z,27.04
2018-05-27T09:55:57.962Z,26.92
2018-05-27T09:56:58.078Z,26.76
2018-05-27T09:57:58.115Z,26.80
2018-05-27T09:58:58.095Z,26.73
2018-05-27T09:59:58.056Z,26.83
2018-05-27T10:00:58.117Z,26.83
2018-05-27T10:01:58.063Z,26.91
2018-05-27T10:02:58.115Z,26.94
2018-05-27T10:04:49.491Z,27.26
2018-05-27T10:05:49.545Z,27.36
2018-05-27T10:06:49.522Z,27.46
2018-05-27T10:07:49.554Z,27.54
2018-05-27T10:08:49.517Z,27.71
2018-05-27T10:09:49.570Z,27.77
2018-05-27T10:10:49.560Z,27.59
2018-05-27T10:11:49.727Z,27.57
2018-05-27T10:12:49.647Z,27.47
2018-05-27T10:13:49.692Z,27.42
2018-05-27T10:14:49.609Z,27.42
2018-05-27T10:15:49.708Z,27.41
2018-05-27T10:16:49.645Z,27.59
2018-05-27T10:17:49.719Z,27.67
2018-05-27T10:18:49.679Z,27.82
2018-05-27T10:19:49.731Z,27.85
2018-05-27T10:20:49.701Z,27.85
2018-05-27T10:21:50.763Z,27.94
2018-05-27T10:22:49.733Z,27.85
2018-05-27T10:23:49.862Z,27.71
2018-05-27T10:24:49.758Z,27.58
2018-05-27T10:25:49.891Z,27.59
2018-05-27T10:26:49.846Z,27.54
2018-05-27T10:27:49.885Z,27.46
2018-05-27T10:28:49.826Z,27.41
2018-05-27T10:29:49.911Z,27.51
2018-05-27T10:30:49.856Z,27.47
2018-05-27T10:31:49.919Z,27.57
2018-05-27T10:32:49.920Z,27.48
2018-05-27T10:33:49.928Z,27.50
2018-05-27T10:34:49.902Z,27.61
2018-05-27T10:35:50.033Z,27.62
2018-05-27T10:36:49.941Z,27.73
2018-05-27T10:37:50.051Z,27.71
2018-05-27T10:38:49.964Z,27.77
2018-05-27T10:39:50.087Z,27.76
2018-05-27T10:40:50.009Z,27.77
2018-05-27T10:41:50.094Z,27.77
2018-05-27T10:42:50.061Z,27.89
2018-05-27T10:43:50.099Z,27.86
2018-05-27T10:44:50.066Z,28.07
2018-05-27T10:45:50.106Z,28.28
2018-05-27T10:46:50.083Z,28.50
2018-05-27T10:47:50.226Z,28.60
2018-05-27T10:48:50.121Z,28.58
2018-05-27T10:49:50.233Z,28.65
2018-05-27T10:50:50.145Z,28.65
2018-05-27T10:51:50.183Z,28.66
2018-05-27T10:52:50.195Z,28.54
2018-05-27T10:53:50.272Z,28.33
2018-05-27T10:54:50.216Z,28.19
2018-05-27T10:55:50.273Z,28.16
2018-05-27T10:56:50.243Z,28.04
2018-05-27T10:57:50.284Z,27.85
2018-05-27T10:58:50.269Z,27.79
2018-05-27T10:59:50.406Z,27.64
2018-05-27T11:00:50.314Z,27.59
2018-05-27T11:01:50.415Z,27.57
2018-05-27T11:02:50.354Z,27.51
2018-05-27T11:03:50.426Z,27.47
2018-05-27T11:04:50.368Z,27.53
2018-05-27T11:05:50.503Z,27.70
2018-05-27T11:07:37.413Z,27.92
2018-05-27T11:08:37.301Z,28.14
2018-05-27T11:09:37.312Z,28.28
2018-05-27T11:10:37.363Z,28.36
2018-05-27T11:11:37.331Z,28.60
2018-05-27T11:12:37.384Z,28.66
2018-05-27T11:13:37.376Z,28.70
2018-05-27T11:14:37.497Z,28.82
2018-05-27T11:15:37.399Z,28.62
2018-05-27T11:16:37.514Z,28.60
2018-05-27T11:17:37.431Z,28.69
2018-05-27T11:18:37.516Z,28.56
2018-05-27T11:19:37.469Z,28.62
2018-05-27T11:20:37.587Z,28.62
2018-05-27T11:21:37.533Z,28.73
2018-05-27T11:22:37.546Z,28.91
2018-05-27T11:23:37.516Z,29.06
2018-05-27T11:24:37.607Z,29.15
2018-05-27T11:25:37.549Z,29.31
2018-05-27T11:26:37.691Z,29.40
2018-05-27T11:27:37.578Z,29.59
2018-05-27T11:28:37.682Z,29.86
2018-05-27T11:29:37.615Z,30.08
2018-05-27T11:31:24.580Z,30.37
2018-05-27T11:32:24.604Z,30.72
2018-05-27T11:33:24.567Z,30.78
2018-05-27T11:34:24.615Z,30.57
2018-05-27T11:35:24.595Z,30.26
2018-05-27T11:36:24.719Z,30.19
2018-05-27T11:37:24.691Z,30.27
2018-05-27T11:38:24.765Z,30.19
2018-05-27T11:39:24.662Z,30.21
2018-05-27T11:40:24.760Z,30.34
2018-05-27T11:41:24.701Z,30.31
2018-05-27T11:42:24.796Z,30.45
2018-05-27T11:43:24.730Z,30.61
2018-05-27T11:44:24.811Z,30.74
2018-05-27T11:45:24.743Z,30.81
2018-05-27T11:46:24.801Z,30.89
2018-05-27T11:47:24.776Z,31.01
2018-05-27T11:48:24.856Z,31.08
2018-05-27T11:50:11.661Z,31.20
2018-05-27T11:51:11.566Z,31.24
2018-05-27T11:52:12.661Z,31.02
2018-05-27T11:53:11.594Z,30.83
2018-05-27T11:54:11.715Z,30.64
2018-05-27T11:55:11.655Z,30.57
2018-05-27T11:56:11.761Z,30.30
2018-05-27T11:57:11.676Z,30.05
2018-05-27T11:58:11.765Z,29.87
2018-05-27T11:59:11.716Z,29.66
2018-05-27T12:00:11.778Z,29.62
2018-05-27T12:01:11.728Z,29.75
2018-05-27T12:02:11.819Z,29.84
2018-05-27T12:03:11.755Z,29.93
2018-05-27T12:04:11.848Z,30.16
2018-05-27T12:05:11.797Z,30.49
2018-05-27T12:06:11.826Z,30.71
2018-05-27T12:07:11.816Z,30.94
2018-05-27T12:08:11.932Z,31.17
2018-05-27T12:09:11.875Z,31.33
2018-05-27T12:10:11.971Z,31.35
2018-05-27T12:11:11.885Z,31.31
2018-05-27T12:12:11.960Z,31.26
2018-05-27T12:13:11.939Z,31.11
2018-05-27T12:14:12.012Z,30.84
2018-05-27T12:15:11.950Z,30.81
2018-05-27T12:16:11.992Z,30.90
2018-05-27T12:17:12.003Z,30.99
2018-05-27T12:18:12.108Z,31.18
2018-05-27T12:19:12.015Z,31.17
2018-05-27T12:20:12.122Z,31.28
2018-05-27T12:21:12.041Z,31.24
2018-05-27T12:22:12.128Z,31.13
2018-05-27T12:23:12.079Z,31.12
2018-05-27T12:24:12.143Z,30.98
2018-05-27T12:25:12.107Z,30.90
2018-05-27T12:26:12.153Z,30.83
2018-05-27T12:27:12.169Z,30.74
2018-05-27T12:28:12.175Z,30.74
2018-05-27T12:29:12.174Z,30.61
2018-05-27T12:30:12.281Z,30.76
2018-05-27T12:31:12.216Z,30.84
2018-05-27T12:33:08.686Z,30.72
2018-05-27T12:34:08.727Z,30.76
2018-05-27T12:35:08.688Z,30.62
2018-05-27T12:36:08.746Z,30.76
2018-05-27T12:37:08.710Z,30.78
2018-05-27T12:38:08.751Z,30.90
2018-05-27T12:39:08.777Z,31.01
2018-05-27T12:40:08.877Z,31.09
2018-05-27T12:41:08.787Z,31.17
2018-05-27T12:42:08.883Z,31.20
2018-05-27T12:43:08.837Z,31.33
2018-05-27T12:44:08.888Z,31.26
2018-05-27T12:45:08.864Z,31.36
2018-05-27T12:46:08.911Z,31.35
2018-05-27T12:47:08.901Z,31.60
2018-05-27T12:48:08.916Z,31.62
2018-05-27T12:49:08.905Z,31.65
2018-05-27T12:50:09.048Z,32.02
2018-05-27T12:51:08.935Z,31.95
2018-05-27T12:52:09.053Z,31.87
2018-05-27T12:53:08.970Z,31.54
2018-05-27T12:54:09.066Z,31.40
2018-05-27T12:55:09.009Z,31.39
2018-05-27T12:56:09.070Z,31.35
2018-05-27T12:57:09.037Z,31.35
2018-05-27T12:58:09.077Z,31.45
2018-05-27T12:59:09.067Z,31.31
2018-05-27T13:00:09.133Z,31.23
2018-05-27T13:01:09.095Z,31.04
2018-05-27T13:02:09.217Z,30.94
2018-05-27T13:03:09.129Z,30.81
2018-05-27T13:04:10.152Z,30.75
2018-05-27T13:05:09.183Z,30.80
2018-05-27T13:06:09.231Z,30.80
2018-05-27T13:07:09.194Z,30.83
2018-05-27T13:08:09.250Z,30.99